sensor_id;sensor_type;location;lat;lon;timestamp;pressure;altitude;pressure_sealevel;temperature;humidity
1480;BME280;732;51.698;4.886;2023-06-14T00:00:17;101559.03;;;14.78;45.79
1480;BME280;732;51.698;4.886;2023-06-14T00:02:45;101558.72;;;14.66;46.33
1480;BME280;732;51.698;4.886;2023-06-14T00:05:14;101570.63;;;14.72;46.20
1480;BME280;732;51.698;4.886;2023-06-14T00:07:43;101574.34;;;14.71;46.18
1480;BME280;732;51.698;4.886;2023-06-14T00:10:11;101573.50;;;14.70;46.22
1480;BME280;732;51.698;4.886;2023-06-14T00:12:40;101540.06;;;14.50;46.26
1480;BME280;732;51.698;4.886;2023-06-14T00:15:09;101542.50;;;14.45;46.07
1480;BME280;732;51.698;4.886;2023-06-14T00:17:39;101545.97;;;14.38;45.99
1480;BME280;732;51.698;4.886;2023-06-14T00:20:11;101545.63;;;14.26;45.85
1480;BME280;732;51.698;4.886;2023-06-14T00:22:39;101522.56;;;14.09;46.14
1480;BME280;732;51.698;4.886;2023-06-14T00:25:08;101570.06;;;14.40;45.82
1480;BME280;732;51.698;4.886;2023-06-14T00:27:55;101575.84;;;14.37;46.14
1480;BME280;732;51.698;4.886;2023-06-14T00:30:24;101548.81;;;14.15;46.35
1480;BME280;732;51.698;4.886;2023-06-14T00:33:01;101565.09;;;14.22;46.80
1480;BME280;732;51.698;4.886;2023-06-14T00:35:30;101529.94;;;14.00;46.41
1480;BME280;732;51.698;4.886;2023-06-14T00:37:59;101573.19;;;14.22;46.50
1480;BME280;732;51.698;4.886;2023-06-14T00:40:28;101550.78;;;14.06;46.54
1480;BME280;732;51.698;4.886;2023-06-14T00:42:57;101572.06;;;14.16;46.51
1480;BME280;732;51.698;4.886;2023-06-14T00:45:26;101559.44;;;14.02;46.87
1480;BME280;732;51.698;4.886;2023-06-14T00:47:55;101516.59;;;13.62;46.83
1480;BME280;732;51.698;4.886;2023-06-14T00:50:26;101564.91;;;13.93;46.70
1480;BME280;732;51.698;4.886;2023-06-14T00:52:54;101571.16;;;13.94;46.98
1480;BME280;732;51.698;4.886;2023-06-14T00:55:24;101564.81;;;13.87;46.98
1480;BME280;732;51.698;4.886;2023-06-14T00:57:55;101579.78;;;13.89;47.29
1480;BME280;732;51.698;4.886;2023-06-14T01:00:24;101581.38;;;13.84;47.49
1480;BME280;732;51.698;4.886;2023-06-14T01:02:55;101581.47;;;13.75;48.06
1480;BME280;732;51.698;4.886;2023-06-14T01:05:25;101579.16;;;13.72;48.10
1480;BME280;732;51.698;4.886;2023-06-14T01:08:13;101560.75;;;13.61;48.37
1480;BME280;732;51.698;4.886;2023-06-14T01:10:50;101450.69;;;12.81;48.92
1480;BME280;732;51.698;4.886;2023-06-14T01:13:26;101535.88;;;13.36;49.43
1480;BME280;732;51.698;4.886;2023-06-14T01:15:56;101579.78;;;13.59;49.34
1480;BME280;732;51.698;4.886;2023-06-14T01:18:26;101543.16;;;13.35;49.59
1480;BME280;732;51.698;4.886;2023-06-14T01:20:58;101567.41;;;13.50;49.19
1480;BME280;732;51.698;4.886;2023-06-14T01:23:28;101575.78;;;13.55;49.07
1480;BME280;732;51.698;4.886;2023-06-14T01:26:00;101571.13;;;13.49;49.71
1480;BME280;732;51.698;4.886;2023-06-14T01:28:33;101547.88;;;13.33;49.76
1480;BME280;732;51.698;4.886;2023-06-14T01:31:03;101577.06;;;13.44;50.08
1480;BME280;732;51.698;4.886;2023-06-14T01:33:33;101566.00;;;13.39;50.08
1480;BME280;732;51.698;4.886;2023-06-14T01:36:05;101569.91;;;13.37;50.35
1480;BME280;732;51.698;4.886;2023-06-14T01:38:37;101568.41;;;13.34;50.38
1480;BME280;732;51.698;4.886;2023-06-14T01:41:06;101573.34;;;13.30;50.51
1480;BME280;732;51.698;4.886;2023-06-14T01:43:36;101559.66;;;13.17;50.52
1480;BME280;732;51.698;4.886;2023-06-14T01:46:06;101572.84;;;13.27;50.41
1480;BME280;732;51.698;4.886;2023-06-14T01:48:35;101541.13;;;12.99;50.89
1480;BME280;732;51.698;4.886;2023-06-14T01:51:03;101569.97;;;13.13;51.10
1480;BME280;732;51.698;4.886;2023-06-14T01:53:32;101531.97;;;12.85;51.15
1480;BME280;732;51.698;4.886;2023-06-14T01:56:02;101572.81;;;13.12;51.07
1480;BME280;732;51.698;4.886;2023-06-14T01:58:31;101574.41;;;13.06;51.58
1480;BME280;732;51.698;4.886;2023-06-14T02:01:00;101562.56;;;12.92;51.27
1480;BME280;732;51.698;4.886;2023-06-14T02:03:29;101556.34;;;12.92;51.18
1480;BME280;732;51.698;4.886;2023-06-14T02:05:58;101563.25;;;12.86;51.56
1480;BME280;732;51.698;4.886;2023-06-14T02:08:27;101509.53;;;12.46;51.71
1480;BME280;732;51.698;4.886;2023-06-14T02:10:56;101559.94;;;12.76;51.93
1480;BME280;732;51.698;4.886;2023-06-14T02:13:25;101539.69;;;12.65;51.63
1480;BME280;732;51.698;4.886;2023-06-14T02:15:54;101579.56;;;12.85;51.33
1480;BME280;732;51.698;4.886;2023-06-14T02:18:23;101576.06;;;12.84;51.44
1480;BME280;732;51.698;4.886;2023-06-14T02:20:52;101552.47;;;12.63;51.73
1480;BME280;732;51.698;4.886;2023-06-14T02:23:21;101573.25;;;12.77;51.80
1480;BME280;732;51.698;4.886;2023-06-14T02:25:50;101572.00;;;12.65;52.12
1480;BME280;732;51.698;4.886;2023-06-14T02:28:19;101567.81;;;12.62;52.48
1480;BME280;732;51.698;4.886;2023-06-14T02:30:50;101528.78;;;12.35;52.53
1480;BME280;732;51.698;4.886;2023-06-14T02:33:22;101551.94;;;12.44;52.29
1480;BME280;732;51.698;4.886;2023-06-14T02:35:52;101581.09;;;12.64;52.69
1480;BME280;732;51.698;4.886;2023-06-14T02:38:20;101586.66;;;12.62;52.44
1480;BME280;732;51.698;4.886;2023-06-14T02:40:49;101565.69;;;12.49;52.20
1480;BME280;732;51.698;4.886;2023-06-14T02:43:18;101587.88;;;12.52;52.54
1480;BME280;732;51.698;4.886;2023-06-14T02:45:47;101538.97;;;12.16;52.77
1480;BME280;732;51.698;4.886;2023-06-14T02:48:17;101598.38;;;12.38;53.02
1480;BME280;732;51.698;4.886;2023-06-14T02:50:48;101557.63;;;12.18;52.58
1480;BME280;732;51.698;4.886;2023-06-14T02:53:17;101581.94;;;12.33;52.47
1480;BME280;732;51.698;4.886;2023-06-14T02:55:46;101559.13;;;12.21;52.42
1480;BME280;732;51.698;4.886;2023-06-14T02:58:15;101537.88;;;12.03;52.22
1480;BME280;732;51.698;4.886;2023-06-14T03:00:45;101567.91;;;12.14;52.52
1480;BME280;732;51.698;4.886;2023-06-14T03:03:13;101584.31;;;12.28;52.41
1480;BME280;732;51.698;4.886;2023-06-14T03:05:52;101597.06;;;12.34;52.23
1480;BME280;732;51.698;4.886;2023-06-14T03:08:24;101556.34;;;12.06;52.12
1480;BME280;732;51.698;4.886;2023-06-14T03:10:59;101548.28;;;11.97;52.23
1480;BME280;732;51.698;4.886;2023-06-14T03:13:30;101603.66;;;12.31;52.00
1480;BME280;732;51.698;4.886;2023-06-14T03:16:00;101598.59;;;12.28;52.03
1480;BME280;732;51.698;4.886;2023-06-14T03:18:32;101542.59;;;11.92;51.96
1480;BME280;732;51.698;4.886;2023-06-14T03:21:05;101584.03;;;12.14;51.95
1480;BME280;732;51.698;4.886;2023-06-14T03:23:38;101592.59;;;12.18;51.89
1480;BME280;732;51.698;4.886;2023-06-14T03:26:10;101610.72;;;12.32;51.98
1480;BME280;732;51.698;4.886;2023-06-14T03:28:42;101609.03;;;12.31;51.93
1480;BME280;732;51.698;4.886;2023-06-14T03:31:10;101608.03;;;12.32;51.84
1480;BME280;732;51.698;4.886;2023-06-14T03:33:39;101595.28;;;12.18;51.76
1480;BME280;732;51.698;4.886;2023-06-14T03:36:09;101590.59;;;12.20;51.99
1480;BME280;732;51.698;4.886;2023-06-14T03:38:38;101614.03;;;12.34;51.82
1480;BME280;732;51.698;4.886;2023-06-14T03:41:07;101621.28;;;12.34;51.76
1480;BME280;732;51.698;4.886;2023-06-14T03:43:37;101600.31;;;12.21;51.61
1480;BME280;732;51.698;4.886;2023-06-14T03:46:06;101616.72;;;12.34;51.50
1480;BME280;732;51.698;4.886;2023-06-14T03:48:35;101623.28;;;12.40;51.43
1480;BME280;732;51.698;4.886;2023-06-14T03:51:04;101618.09;;;12.39;51.58
1480;BME280;732;51.698;4.886;2023-06-14T03:53:34;101632.00;;;12.42;51.42
1480;BME280;732;51.698;4.886;2023-06-14T03:56:10;101588.53;;;12.22;51.34
1480;BME280;732;51.698;4.886;2023-06-14T03:58:42;101623.41;;;12.47;51.13
1480;BME280;732;51.698;4.886;2023-06-14T04:01:11;101593.88;;;12.30;51.32
1480;BME280;732;51.698;4.886;2023-06-14T04:03:40;101621.56;;;12.47;51.21
1480;BME280;732;51.698;4.886;2023-06-14T04:06:09;101633.13;;;12.56;51.60
1480;BME280;732;51.698;4.886;2023-06-14T04:08:38;101635.94;;;12.63;51.42
1480;BME280;732;51.698;4.886;2023-06-14T04:11:09;101631.22;;;12.65;51.29
1480;BME280;732;51.698;4.886;2023-06-14T04:13:37;101629.25;;;12.59;51.26
1480;BME280;732;51.698;4.886;2023-06-14T04:16:06;101638.75;;;12.70;51.47
1480;BME280;732;51.698;4.886;2023-06-14T04:18:37;101632.53;;;12.69;51.59
1480;BME280;732;51.698;4.886;2023-06-14T04:21:06;101640.59;;;12.77;51.63
1480;BME280;732;51.698;4.886;2023-06-14T04:23:38;101634.63;;;12.82;51.76
1480;BME280;732;51.698;4.886;2023-06-14T04:26:13;101639.69;;;12.85;52.30
1480;BME280;732;51.698;4.886;2023-06-14T04:28:44;101634.59;;;12.90;52.18
1480;BME280;732;51.698;4.886;2023-06-14T04:31:14;101642.19;;;12.95;52.13
1480;BME280;732;51.698;4.886;2023-06-14T04:33:43;101639.97;;;12.98;51.99
1480;BME280;732;51.698;4.886;2023-06-14T04:36:17;101641.94;;;13.05;52.17
1480;BME280;732;51.698;4.886;2023-06-14T04:38:49;101613.56;;;12.86;52.04
1480;BME280;732;51.698;4.886;2023-06-14T04:41:23;101593.94;;;12.77;52.24
1480;BME280;732;51.698;4.886;2023-06-14T04:43:56;101632.00;;;13.05;52.11
1480;BME280;732;51.698;4.886;2023-06-14T04:46:31;101644.56;;;13.13;52.12
1480;BME280;732;51.698;4.886;2023-06-14T04:49:00;101650.25;;;13.18;52.30
1480;BME280;732;51.698;4.886;2023-06-14T04:51:30;101659.47;;;13.24;52.47
1480;BME280;732;51.698;4.886;2023-06-14T04:54:02;101644.22;;;13.16;52.34
1480;BME280;732;51.698;4.886;2023-06-14T04:56:31;101649.91;;;13.21;52.62
1480;BME280;732;51.698;4.886;2023-06-14T04:59:00;101658.75;;;13.30;52.53
1480;BME280;732;51.698;4.886;2023-06-14T05:01:31;101661.19;;;13.40;52.83
1480;BME280;732;51.698;4.886;2023-06-14T05:04:00;101668.91;;;13.43;53.71
1480;BME280;732;51.698;4.886;2023-06-14T05:06:29;101656.44;;;13.42;53.68
1480;BME280;732;51.698;4.886;2023-06-14T05:09:01;101664.84;;;13.47;54.01
1480;BME280;732;51.698;4.886;2023-06-14T05:11:30;101649.69;;;13.46;53.97
1480;BME280;732;51.698;4.886;2023-06-14T05:13:59;101666.97;;;13.52;54.23
1480;BME280;732;51.698;4.886;2023-06-14T05:16:28;101666.81;;;13.68;53.80
1480;BME280;732;51.698;4.886;2023-06-14T05:18:57;101668.34;;;13.71;53.33
1480;BME280;732;51.698;4.886;2023-06-14T05:21:28;101674.31;;;13.81;52.97
1480;BME280;732;51.698;4.886;2023-06-14T05:23:57;101635.66;;;13.66;53.25
1480;BME280;732;51.698;4.886;2023-06-14T05:26:27;101676.84;;;13.98;52.91
1480;BME280;732;51.698;4.886;2023-06-14T05:28:58;101665.03;;;13.99;52.58
1480;BME280;732;51.698;4.886;2023-06-14T05:31:28;101667.66;;;14.07;52.20
1480;BME280;732;51.698;4.886;2023-06-14T05:33:57;101682.81;;;14.08;52.20
1480;BME280;732;51.698;4.886;2023-06-14T05:36:25;101643.50;;;13.90;52.18
1480;BME280;732;51.698;4.886;2023-06-14T05:38:55;101679.84;;;14.18;51.82
1480;BME280;732;51.698;4.886;2023-06-14T05:41:28;101681.31;;;14.20;51.85
1480;BME280;732;51.698;4.886;2023-06-14T05:43:57;101662.81;;;14.17;51.35
1480;BME280;732;51.698;4.886;2023-06-14T05:46:27;101667.94;;;14.27;51.24
1480;BME280;732;51.698;4.886;2023-06-14T05:48:56;101676.56;;;14.37;51.52
1480;BME280;732;51.698;4.886;2023-06-14T05:51:27;101641.84;;;14.19;51.06
1480;BME280;732;51.698;4.886;2023-06-14T05:53:57;101693.22;;;14.56;51.35
1480;BME280;732;51.698;4.886;2023-06-14T05:56:27;101636.63;;;14.33;51.61
1480;BME280;732;51.698;4.886;2023-06-14T05:58:56;101681.00;;;14.60;51.54
1480;BME280;732;51.698;4.886;2023-06-14T06:01:25;101697.19;;;14.75;51.03
1480;BME280;732;51.698;4.886;2023-06-14T06:03:53;101689.38;;;14.65;50.98
1480;BME280;732;51.698;4.886;2023-06-14T06:06:22;101693.97;;;14.86;50.77
1480;BME280;732;51.698;4.886;2023-06-14T06:08:50;101627.59;;;14.40;50.53
1480;BME280;732;51.698;4.886;2023-06-14T06:11:18;101654.47;;;14.64;50.46
1480;BME280;732;51.698;4.886;2023-06-14T06:13:48;101638.44;;;14.62;50.09
1480;BME280;732;51.698;4.886;2023-06-14T06:16:17;101621.97;;;14.57;50.33
1480;BME280;732;51.698;4.886;2023-06-14T06:18:46;101706.59;;;15.16;49.99
1480;BME280;732;51.698;4.886;2023-06-14T06:21:14;101705.63;;;15.23;50.16
1480;BME280;732;51.698;4.886;2023-06-14T06:23:42;101698.38;;;15.24;50.40
1480;BME280;732;51.698;4.886;2023-06-14T06:26:11;101691.59;;;15.13;49.77
1480;BME280;732;51.698;4.886;2023-06-14T06:28:39;101612.97;;;14.71;48.73
1480;BME280;732;51.698;4.886;2023-06-14T06:31:09;101708.28;;;15.38;49.17
1480;BME280;732;51.698;4.886;2023-06-14T06:33:40;101703.56;;;15.47;48.40
1480;BME280;732;51.698;4.886;2023-06-14T06:36:09;101709.66;;;15.56;48.88
1480;BME280;732;51.698;4.886;2023-06-14T06:38:39;101715.97;;;15.63;49.15
1480;BME280;732;51.698;4.886;2023-06-14T06:41:08;101714.78;;;15.72;48.45
1480;BME280;732;51.698;4.886;2023-06-14T06:43:37;101697.50;;;15.67;48.53
1480;BME280;732;51.698;4.886;2023-06-14T06:46:06;101701.81;;;15.83;48.38
1480;BME280;732;51.698;4.886;2023-06-14T06:48:36;101722.38;;;16.06;47.91
1480;BME280;732;51.698;4.886;2023-06-14T06:51:05;101728.59;;;16.06;48.07
1480;BME280;732;51.698;4.886;2023-06-14T06:53:33;101726.84;;;16.20;48.20
1480;BME280;732;51.698;4.886;2023-06-14T06:56:10;101729.38;;;16.28;48.39
1480;BME280;732;51.698;4.886;2023-06-14T06:58:38;101731.69;;;16.31;47.41
1480;BME280;732;51.698;4.886;2023-06-14T07:01:07;101739.06;;;16.44;47.15
1480;BME280;732;51.698;4.886;2023-06-14T07:03:37;101736.81;;;16.55;46.69
1480;BME280;732;51.698;4.886;2023-06-14T07:06:06;101711.13;;;16.44;46.81
1480;BME280;732;51.698;4.886;2023-06-14T07:08:37;101751.72;;;16.72;46.49
1480;BME280;732;51.698;4.886;2023-06-14T07:11:06;101721.84;;;16.65;46.38
1480;BME280;732;51.698;4.886;2023-06-14T07:13:35;101726.94;;;16.75;45.77
1480;BME280;732;51.698;4.886;2023-06-14T07:16:04;101748.69;;;17.02;45.03
1480;BME280;732;51.698;4.886;2023-06-14T07:18:33;101696.69;;;16.78;45.23
1480;BME280;732;51.698;4.886;2023-06-14T07:21:03;101702.34;;;16.83;45.83
1480;BME280;732;51.698;4.886;2023-06-14T07:23:33;101753.56;;;17.20;45.53
1480;BME280;732;51.698;4.886;2023-06-14T07:26:02;101756.47;;;17.25;45.97
1480;BME280;732;51.698;4.886;2023-06-14T07:28:31;101759.66;;;17.42;45.24
1480;BME280;732;51.698;4.886;2023-06-14T07:30:59;101768.25;;;17.59;44.88
1480;BME280;732;51.698;4.886;2023-06-14T07:33:28;101759.50;;;17.91;43.90
1480;BME280;732;51.698;4.886;2023-06-14T07:35:56;101704.53;;;17.95;42.99
1480;BME280;732;51.698;4.886;2023-06-14T07:38:26;101757.47;;;18.65;42.40
1480;BME280;732;51.698;4.886;2023-06-14T07:40:55;101762.53;;;19.07;42.36
1480;BME280;732;51.698;4.886;2023-06-14T07:43:23;101762.13;;;19.42;41.61
1480;BME280;732;51.698;4.886;2023-06-14T07:45:52;101697.53;;;19.31;41.17
1480;BME280;732;51.698;4.886;2023-06-14T07:48:34;101764.06;;;19.92;39.63
1480;BME280;732;51.698;4.886;2023-06-14T07:51:02;101758.16;;;20.20;39.19
1480;BME280;732;51.698;4.886;2023-06-14T07:53:32;101766.25;;;20.83;38.74
1480;BME280;732;51.698;4.886;2023-06-14T07:56:01;101631.81;;;20.82;35.89
1480;BME280;732;51.698;4.886;2023-06-14T07:58:29;101763.25;;;22.88;34.70
1480;BME280;732;51.698;4.886;2023-06-14T08:00:58;101735.19;;;23.89;32.59
1480;BME280;732;51.698;4.886;2023-06-14T08:03:27;101772.19;;;25.15;30.33
1480;BME280;732;51.698;4.886;2023-06-14T08:05:55;101768.84;;;26.05;27.97
1480;BME280;732;51.698;4.886;2023-06-14T08:08:24;101644.78;;;26.01;27.80
1480;BME280;732;51.698;4.886;2023-06-14T08:10:53;101743.16;;;27.37;26.49
1480;BME280;732;51.698;4.886;2023-06-14T08:13:22;101761.81;;;28.07;25.48
1480;BME280;732;51.698;4.886;2023-06-14T08:15:50;101778.44;;;28.78;25.33
1480;BME280;732;51.698;4.886;2023-06-14T08:18:19;101745.31;;;29.12;24.27
1480;BME280;732;51.698;4.886;2023-06-14T08:20:47;101776.00;;;29.85;23.83
1480;BME280;732;51.698;4.886;2023-06-14T08:23:17;101720.09;;;29.88;22.98
1480;BME280;732;51.698;4.886;2023-06-14T08:25:48;101768.81;;;30.38;22.81
1480;BME280;732;51.698;4.886;2023-06-14T08:28:17;101741.81;;;30.48;22.29
1480;BME280;732;51.698;4.886;2023-06-14T08:30:46;101762.88;;;30.88;22.26
1480;BME280;732;51.698;4.886;2023-06-14T08:33:14;101732.09;;;30.89;22.31
1480;BME280;732;51.698;4.886;2023-06-14T08:35:43;101764.78;;;31.25;21.98
1480;BME280;732;51.698;4.886;2023-06-14T08:38:12;101768.31;;;31.31;21.24
1480;BME280;732;51.698;4.886;2023-06-14T08:40:42;101757.59;;;31.43;21.11
1480;BME280;732;51.698;4.886;2023-06-14T08:43:10;101761.97;;;31.63;20.55
1480;BME280;732;51.698;4.886;2023-06-14T08:45:40;101709.22;;;31.17;21.12
1480;BME280;732;51.698;4.886;2023-06-14T08:48:09;101709.00;;;31.13;21.21
1480;BME280;732;51.698;4.886;2023-06-14T08:50:40;101766.97;;;31.61;20.14
1480;BME280;732;51.698;4.886;2023-06-14T08:53:12;101758.88;;;31.79;20.30
1480;BME280;732;51.698;4.886;2023-06-14T08:55:47;101767.63;;;31.72;19.58
1480;BME280;732;51.698;4.886;2023-06-14T08:58:17;101763.72;;;31.73;20.42
1480;BME280;732;51.698;4.886;2023-06-14T09:00:48;101737.31;;;31.76;20.36
1480;BME280;732;51.698;4.886;2023-06-14T09:03:19;101681.03;;;31.28;20.20
1480;BME280;732;51.698;4.886;2023-06-14T09:05:47;101773.75;;;32.02;19.75
1480;BME280;732;51.698;4.886;2023-06-14T09:08:17;101772.84;;;32.07;20.00
1480;BME280;732;51.698;4.886;2023-06-14T09:10:46;101778.69;;;32.19;19.99
1480;BME280;732;51.698;4.886;2023-06-14T09:13:14;101775.81;;;32.24;19.73
1480;BME280;732;51.698;4.886;2023-06-14T09:15:43;101765.44;;;32.02;19.27
1480;BME280;732;51.698;4.886;2023-06-14T09:18:13;101772.84;;;32.07;19.74
1480;BME280;732;51.698;4.886;2023-06-14T09:20:41;101700.63;;;31.65;20.10
1480;BME280;732;51.698;4.886;2023-06-14T09:23:10;101740.63;;;31.78;19.97
1480;BME280;732;51.698;4.886;2023-06-14T09:25:43;101775.81;;;32.10;19.99
1480;BME280;732;51.698;4.886;2023-06-14T09:28:12;101786.63;;;32.12;20.54
1480;BME280;732;51.698;4.886;2023-06-14T09:30:40;101780.84;;;31.94;19.42
1480;BME280;732;51.698;4.886;2023-06-14T09:33:09;101788.28;;;31.80;19.62
1480;BME280;732;51.698;4.886;2023-06-14T09:35:39;101790.34;;;31.74;20.04
1480;BME280;732;51.698;4.886;2023-06-14T09:38:08;101702.69;;;31.26;20.02
1480;BME280;732;51.698;4.886;2023-06-14T09:40:36;101747.75;;;31.51;19.75
1480;BME280;732;51.698;4.886;2023-06-14T09:43:07;101682.66;;;31.15;20.11
1480;BME280;732;51.698;4.886;2023-06-14T09:45:39;101755.72;;;31.72;20.26
1480;BME280;732;51.698;4.886;2023-06-14T09:48:08;101750.56;;;31.65;20.01
1480;BME280;732;51.698;4.886;2023-06-14T09:50:39;101789.00;;;31.72;20.08
1480;BME280;732;51.698;4.886;2023-06-14T09:53:10;101683.09;;;31.04;20.88
1480;BME280;732;51.698;4.886;2023-06-14T09:55:41;101736.47;;;31.28;19.63
1480;BME280;732;51.698;4.886;2023-06-14T09:58:10;101784.50;;;31.43;20.06
1480;BME280;732;51.698;4.886;2023-06-14T10:00:40;101787.50;;;31.27;18.94
1480;BME280;732;51.698;4.886;2023-06-14T10:03:16;101779.94;;;31.14;19.63
1480;BME280;732;51.698;4.886;2023-06-14T10:05:50;101758.81;;;30.61;19.72
1480;BME280;732;51.698;4.886;2023-06-14T10:08:23;101785.91;;;30.88;19.96
1480;BME280;732;51.698;4.886;2023-06-14T10:10:55;101781.53;;;30.39;19.50
1480;BME280;732;51.698;4.886;2023-06-14T10:13:23;101784.78;;;30.46;20.15
1480;BME280;732;51.698;4.886;2023-06-14T10:16:04;101768.41;;;30.69;20.00
1480;BME280;732;51.698;4.886;2023-06-14T10:18:42;101779.22;;;30.89;20.25
1480;BME280;732;51.698;4.886;2023-06-14T10:21:21;101777.41;;;30.79;20.07
1480;BME280;732;51.698;4.886;2023-06-14T10:23:53;101773.09;;;30.92;19.89
1480;BME280;732;51.698;4.886;2023-06-14T10:26:23;101768.22;;;31.03;19.72
1480;BME280;732;51.698;4.886;2023-06-14T10:29:00;101783.25;;;31.16;19.71
1480;BME280;732;51.698;4.886;2023-06-14T10:31:43;101783.38;;;31.25;18.98
1480;BME280;732;51.698;4.886;2023-06-14T10:34:20;101775.19;;;31.34;19.10
1480;BME280;732;51.698;4.886;2023-06-14T10:37:02;101778.50;;;31.36;18.69
1480;BME280;732;51.698;4.886;2023-06-14T10:39:32;101784.06;;;31.36;18.62
1480;BME280;732;51.698;4.886;2023-06-14T10:42:03;101752.53;;;31.12;18.34
1480;BME280;732;51.698;4.886;2023-06-14T10:44:43;101763.41;;;31.09;18.90
1480;BME280;732;51.698;4.886;2023-06-14T10:47:26;101763.44;;;31.23;19.13
1480;BME280;732;51.698;4.886;2023-06-14T10:49:58;101773.38;;;31.10;18.96
1480;BME280;732;51.698;4.886;2023-06-14T10:52:34;101784.09;;;30.97;18.73
1480;BME280;732;51.698;4.886;2023-06-14T10:55:06;101766.38;;;30.74;19.04
1480;BME280;732;51.698;4.886;2023-06-14T10:57:38;101784.06;;;30.78;19.17
1480;BME280;732;51.698;4.886;2023-06-14T11:00:18;101778.84;;;30.96;19.40
1480;BME280;732;51.698;4.886;2023-06-14T11:06:14;101752.66;;;30.88;19.56
1480;BME280;732;51.698;4.886;2023-06-14T11:09:20;101784.00;;;31.41;18.21
1480;BME280;732;51.698;4.886;2023-06-14T11:11:51;101785.50;;;31.33;19.60
1480;BME280;732;51.698;4.886;2023-06-14T11:14:22;101778.06;;;31.28;19.17
1480;BME280;732;51.698;4.886;2023-06-14T11:16:50;101769.63;;;31.20;19.58
1480;BME280;732;51.698;4.886;2023-06-14T11:19:19;101773.41;;;31.24;18.64
1480;BME280;732;51.698;4.886;2023-06-14T11:21:48;101771.56;;;30.81;20.23
1480;BME280;732;51.698;4.886;2023-06-14T11:24:19;101779.97;;;30.95;19.94
1480;BME280;732;51.698;4.886;2023-06-14T11:26:49;101779.34;;;30.98;20.37
1480;BME280;732;51.698;4.886;2023-06-14T11:29:20;101772.94;;;30.59;19.21
1480;BME280;732;51.698;4.886;2023-06-14T11:31:48;101762.91;;;30.44;19.21
1480;BME280;732;51.698;4.886;2023-06-14T11:34:17;101772.84;;;30.45;20.22
1480;BME280;732;51.698;4.886;2023-06-14T11:36:47;101768.75;;;30.62;19.88
1480;BME280;732;51.698;4.886;2023-06-14T11:39:15;101765.63;;;30.69;18.67
1480;BME280;732;51.698;4.886;2023-06-14T11:41:45;101767.88;;;30.66;19.15
1480;BME280;732;51.698;4.886;2023-06-14T11:44:14;101741.75;;;30.54;18.88
1480;BME280;732;51.698;4.886;2023-06-14T11:46:42;101771.78;;;30.85;20.28
1480;BME280;732;51.698;4.886;2023-06-14T11:49:12;101762.41;;;30.80;19.25
1480;BME280;732;51.698;4.886;2023-06-14T11:51:42;101758.75;;;30.85;19.51
1480;BME280;732;51.698;4.886;2023-06-14T11:54:12;101769.13;;;30.98;20.00
1480;BME280;732;51.698;4.886;2023-06-14T11:56:40;101716.59;;;30.69;19.48
1480;BME280;732;51.698;4.886;2023-06-14T11:59:10;101762.41;;;30.80;18.69
1480;BME280;732;51.698;4.886;2023-06-14T12:01:43;101766.53;;;30.83;19.51
1480;BME280;732;51.698;4.886;2023-06-14T12:04:12;101772.59;;;30.66;19.23
1480;BME280;732;51.698;4.886;2023-06-14T12:06:41;101768.78;;;30.81;18.82
1480;BME280;732;51.698;4.886;2023-06-14T12:09:10;101730.88;;;30.76;19.42
1480;BME280;732;51.698;4.886;2023-06-14T12:11:44;101728.94;;;30.58;19.60
1480;BME280;732;51.698;4.886;2023-06-14T12:14:14;101766.50;;;30.88;19.29
1480;BME280;732;51.698;4.886;2023-06-14T12:16:42;101762.44;;;30.99;19.34
1480;BME280;732;51.698;4.886;2023-06-14T12:19:15;101738.75;;;30.69;20.60
1480;BME280;732;51.698;4.886;2023-06-14T12:21:46;101751.41;;;30.75;21.23
1480;BME280;732;51.698;4.886;2023-06-14T12:24:16;101760.50;;;31.00;20.15
1480;BME280;732;51.698;4.886;2023-06-14T12:26:45;101775.00;;;30.92;19.04
1480;BME280;732;51.698;4.886;2023-06-14T12:29:15;101759.63;;;30.61;17.45
1480;BME280;732;51.698;4.886;2023-06-14T12:31:44;101765.81;;;30.53;19.25
1480;BME280;732;51.698;4.886;2023-06-14T12:34:12;101700.41;;;30.14;19.61
1480;BME280;732;51.698;4.886;2023-06-14T12:36:40;101759.78;;;30.51;19.77
1480;BME280;732;51.698;4.886;2023-06-14T12:39:12;101737.75;;;30.41;20.28
1480;BME280;732;51.698;4.886;2023-06-14T12:41:41;101730.97;;;30.52;19.71
1480;BME280;732;51.698;4.886;2023-06-14T12:44:10;101761.59;;;30.61;19.36
1480;BME280;732;51.698;4.886;2023-06-14T12:46:41;101756.06;;;30.61;20.31
1480;BME280;732;51.698;4.886;2023-06-14T12:49:11;101742.31;;;30.50;20.43
1480;BME280;732;51.698;4.886;2023-06-14T12:51:40;101735.59;;;30.57;19.56
1480;BME280;732;51.698;4.886;2023-06-14T12:54:09;101755.75;;;30.62;19.84
1480;BME280;732;51.698;4.886;2023-06-14T12:56:37;101764.22;;;30.71;20.10
1480;BME280;732;51.698;4.886;2023-06-14T12:59:06;101765.03;;;30.72;20.14
1480;BME280;732;51.698;4.886;2023-06-14T13:01:37;101765.63;;;30.49;19.50
1480;BME280;732;51.698;4.886;2023-06-14T13:04:07;101763.84;;;29.86;19.90
1480;BME280;732;51.698;4.886;2023-06-14T13:06:35;101762.91;;;29.32;20.31
1480;BME280;732;51.698;4.886;2023-06-14T13:09:05;101761.38;;;29.50;22.40
1480;BME280;732;51.698;4.886;2023-06-14T13:11:33;101743.03;;;29.59;22.32
1480;BME280;732;51.698;4.886;2023-06-14T13:14:02;101737.34;;;29.75;22.27
1480;BME280;732;51.698;4.886;2023-06-14T13:16:43;101755.78;;;30.14;21.47
1480;BME280;732;51.698;4.886;2023-06-14T13:19:13;101758.34;;;30.34;21.46
1480;BME280;732;51.698;4.886;2023-06-14T13:21:41;101765.31;;;29.73;20.00
1480;BME280;732;51.698;4.886;2023-06-14T13:24:10;101769.63;;;29.84;21.96
1480;BME280;732;51.698;4.886;2023-06-14T13:26:38;101753.47;;;29.97;21.07
1480;BME280;732;51.698;4.886;2023-06-14T13:29:07;101741.88;;;29.95;21.04
1480;BME280;732;51.698;4.886;2023-06-14T13:31:35;101750.81;;;30.11;21.22
1480;BME280;732;51.698;4.886;2023-06-14T13:34:04;101768.25;;;30.35;21.07
1480;BME280;732;51.698;4.886;2023-06-14T13:36:34;101765.72;;;30.39;20.05
1480;BME280;732;51.698;4.886;2023-06-14T13:39:02;101764.97;;;30.33;20.27
1480;BME280;732;51.698;4.886;2023-06-14T13:41:31;101777.69;;;30.10;21.02